Terminal Aerodrome Forecast
Issued by NWS Anchorage, AK

Home | Current Version | Previous Version | Text Only | Print | Product List | Glossary On
Versions: 1 2 3 4 5 6 7 8 9 10 11 12 13 14 15 16 17 18 19 20 21 22 23 24 25 26 27 28 29 30 31 32 33 34 35 36 37 38 39 40 41 42
572
FTAK31 PANC 241139
TAFANC
TAF
PANC 241139Z 2412/2518 14020G35KT P6SM SCT090 BKN150 WS020/13045KT
     FM241500 15025G38KT P6SM BKN090 WS020/14050KT
     FM241900 16028G46KT P6SM VCSH FEW050 BKN070 WS020/14060KT
     FM250000 17022G30KT P6SM VCSH BKN050 OVC070 WS020/15050KT
     FM250200 19010G20KT 6SM -SHRA BR SCT020 BKN035
     FM250800 22010KT P6SM SCT030 BKN050=

USA.gov is the U.S. government's official web portal to all federal, state and local government web resources and services.